sensor_id;sensor_type;location;lat;lon;timestamp;P1;durP1;ratioP1;P2;durP2;ratioP2
22995;SDS011;11664;49.774;8.650;2024-01-30T00:00:03;4.88;;;4.50;;
22995;SDS011;11664;49.774;8.650;2024-01-30T00:02:44;6.70;;;6.20;;
22995;SDS011;11664;49.774;8.650;2024-01-30T00:05:16;6.15;;;5.55;;
22995;SDS011;11664;49.774;8.650;2024-01-30T00:07:45;6.28;;;5.47;;
22995;SDS011;11664;49.774;8.650;2024-01-30T00:10:17;6.72;;;4.82;;
22995;SDS011;11664;49.774;8.650;2024-01-30T00:12:54;5.50;;;4.15;;
22995;SDS011;11664;49.774;8.650;2024-01-30T00:15:26;5.20;;;4.25;;
22995;SDS011;11664;49.774;8.650;2024-01-30T00:17:58;5.30;;;4.78;;
22995;SDS011;11664;49.774;8.650;2024-01-30T00:20:30;6.55;;;4.57;;
22995;SDS011;11664;49.774;8.650;2024-01-30T00:22:58;5.28;;;4.68;;
22995;SDS011;11664;49.774;8.650;2024-01-30T00:25:27;8.55;;;6.53;;
22995;SDS011;11664;49.774;8.650;2024-01-30T00:27:52;6.68;;;6.18;;
22995;SDS011;11664;49.774;8.650;2024-01-30T00:33:41;4.82;;;4.43;;
22995;SDS011;11664;49.774;8.650;2024-01-30T00:36:18;4.25;;;3.70;;
22995;SDS011;11664;49.774;8.650;2024-01-30T00:38:59;6.38;;;5.22;;
22995;SDS011;11664;49.774;8.650;2024-01-30T00:44:21;7.13;;;6.53;;
22995;SDS011;11664;49.774;8.650;2024-01-30T00:46:47;5.13;;;4.10;;
22995;SDS011;11664;49.774;8.650;2024-01-30T00:49:12;7.90;;;5.00;;
22995;SDS011;11664;49.774;8.650;2024-01-30T00:51:38;7.35;;;6.43;;
22995;SDS011;11664;49.774;8.650;2024-01-30T00:54:09;8.93;;;6.03;;
22995;SDS011;11664;49.774;8.650;2024-01-30T00:56:44;9.75;;;6.95;;
22995;SDS011;11664;49.774;8.650;2024-01-30T00:59:13;7.32;;;6.80;;
22995;SDS011;11664;49.774;8.650;2024-01-30T01:04:26;4.53;;;4.13;;
22995;SDS011;11664;49.774;8.650;2024-01-30T01:06:57;5.82;;;4.80;;
22995;SDS011;11664;49.774;8.650;2024-01-30T01:09:23;6.53;;;4.87;;
22995;SDS011;11664;49.774;8.650;2024-01-30T01:12:01;5.10;;;4.70;;
22995;SDS011;11664;49.774;8.650;2024-01-30T01:14:36;7.00;;;6.28;;
22995;SDS011;11664;49.774;8.650;2024-01-30T01:17:05;5.57;;;5.07;;
22995;SDS011;11664;49.774;8.650;2024-01-30T01:19:30;5.72;;;4.75;;
22995;SDS011;11664;49.774;8.650;2024-01-30T01:21:58;5.43;;;4.93;;
22995;SDS011;11664;49.774;8.650;2024-01-30T01:24:27;5.53;;;4.15;;
22995;SDS011;11664;49.774;8.650;2024-01-30T01:26:58;7.43;;;4.88;;
22995;SDS011;11664;49.774;8.650;2024-01-30T01:29:27;6.90;;;6.05;;
22995;SDS011;11664;49.774;8.650;2024-01-30T01:31:59;6.68;;;4.90;;
22995;SDS011;11664;49.774;8.650;2024-01-30T01:34:33;5.20;;;4.70;;
22995;SDS011;11664;49.774;8.650;2024-01-30T01:37:02;5.60;;;4.70;;
22995;SDS011;11664;49.774;8.650;2024-01-30T01:39:33;8.80;;;5.75;;
22995;SDS011;11664;49.774;8.650;2024-01-30T01:41:59;7.18;;;5.10;;
22995;SDS011;11664;49.774;8.650;2024-01-30T01:44:28;6.47;;;5.70;;
22995;SDS011;11664;49.774;8.650;2024-01-30T01:46:59;7.28;;;5.40;;
22995;SDS011;11664;49.774;8.650;2024-01-30T01:49:30;6.05;;;4.95;;
22995;SDS011;11664;49.774;8.650;2024-01-30T01:52:02;6.40;;;4.90;;
22995;SDS011;11664;49.774;8.650;2024-01-30T01:54:28;8.60;;;5.93;;
22995;SDS011;11664;49.774;8.650;2024-01-30T01:56:57;7.93;;;4.90;;
22995;SDS011;11664;49.774;8.650;2024-01-30T01:59:44;5.78;;;5.15;;
22995;SDS011;11664;49.774;8.650;2024-01-30T02:02:10;10.13;;;6.75;;
22995;SDS011;11664;49.774;8.650;2024-01-30T02:04:37;9.55;;;8.02;;
22995;SDS011;11664;49.774;8.650;2024-01-30T02:07:03;9.73;;;8.73;;
22995;SDS011;11664;49.774;8.650;2024-01-30T02:09:28;9.68;;;8.70;;
22995;SDS011;11664;49.774;8.650;2024-01-30T02:11:54;10.43;;;9.52;;
22995;SDS011;11664;49.774;8.650;2024-01-30T02:14:20;9.98;;;9.07;;
22995;SDS011;11664;49.774;8.650;2024-01-30T02:16:55;7.93;;;7.05;;
22995;SDS011;11664;49.774;8.650;2024-01-30T02:19:23;8.80;;;5.35;;
22995;SDS011;11664;49.774;8.650;2024-01-30T02:21:49;7.07;;;6.28;;
22995;SDS011;11664;49.774;8.650;2024-01-30T02:24:15;9.13;;;6.80;;
22995;SDS011;11664;49.774;8.650;2024-01-30T02:26:40;10.07;;;7.15;;
22995;SDS011;11664;49.774;8.650;2024-01-30T02:29:09;6.13;;;5.38;;
22995;SDS011;11664;49.774;8.650;2024-01-30T02:34:22;7.82;;;5.20;;
22995;SDS011;11664;49.774;8.650;2024-01-30T02:36:54;6.10;;;5.40;;
22995;SDS011;11664;49.774;8.650;2024-01-30T02:39:23;6.63;;;5.63;;
22995;SDS011;11664;49.774;8.650;2024-01-30T02:41:55;13.32;;;6.32;;
22995;SDS011;11664;49.774;8.650;2024-01-30T02:46:46;6.80;;;5.45;;
22995;SDS011;11664;49.774;8.650;2024-01-30T02:49:12;9.50;;;6.25;;
22995;SDS011;11664;49.774;8.650;2024-01-30T02:51:40;7.22;;;6.25;;
22995;SDS011;11664;49.774;8.650;2024-01-30T02:54:09;8.95;;;6.55;;
22995;SDS011;11664;49.774;8.650;2024-01-30T02:56:34;8.13;;;7.20;;
22995;SDS011;11664;49.774;8.650;2024-01-30T02:59:00;9.73;;;5.97;;
22995;SDS011;11664;49.774;8.650;2024-01-30T03:01:25;9.50;;;8.60;;
22995;SDS011;11664;49.774;8.650;2024-01-30T03:07:07;8.02;;;7.28;;
22995;SDS011;11664;49.774;8.650;2024-01-30T03:09:32;9.43;;;7.13;;
22995;SDS011;11664;49.774;8.650;2024-01-30T03:12:13;9.85;;;6.72;;
22995;SDS011;11664;49.774;8.650;2024-01-30T03:14:39;10.23;;;6.93;;
22995;SDS011;11664;49.774;8.650;2024-01-30T03:17:10;9.20;;;5.68;;
22995;SDS011;11664;49.774;8.650;2024-01-30T03:19:36;9.38;;;6.43;;
22995;SDS011;11664;49.774;8.650;2024-01-30T03:22:01;8.98;;;6.32;;
22995;SDS011;11664;49.774;8.650;2024-01-30T03:24:33;7.57;;;6.77;;
22995;SDS011;11664;49.774;8.650;2024-01-30T03:27:08;11.30;;;5.20;;
22995;SDS011;11664;49.774;8.650;2024-01-30T03:29:33;9.40;;;6.25;;
22995;SDS011;11664;49.774;8.650;2024-01-30T03:32:08;6.85;;;6.15;;
22995;SDS011;11664;49.774;8.650;2024-01-30T03:34:43;8.40;;;6.03;;
22995;SDS011;11664;49.774;8.650;2024-01-30T03:37:14;7.25;;;6.55;;
22995;SDS011;11664;49.774;8.650;2024-01-30T03:39:43;6.97;;;6.30;;
22995;SDS011;11664;49.774;8.650;2024-01-30T03:42:08;10.25;;;6.25;;
22995;SDS011;11664;49.774;8.650;2024-01-30T03:44:37;11.63;;;6.07;;
22995;SDS011;11664;49.774;8.650;2024-01-30T03:47:08;6.20;;;5.00;;
22995;SDS011;11664;49.774;8.650;2024-01-30T03:49:34;7.18;;;5.63;;
22995;SDS011;11664;49.774;8.650;2024-01-30T03:52:09;6.80;;;6.20;;
22995;SDS011;11664;49.774;8.650;2024-01-30T03:54:37;6.53;;;4.90;;
22995;SDS011;11664;49.774;8.650;2024-01-30T03:57:21;8.25;;;5.65;;
22995;SDS011;11664;49.774;8.650;2024-01-30T03:59:47;7.07;;;5.28;;
22995;SDS011;11664;49.774;8.650;2024-01-30T04:02:12;7.82;;;5.95;;
22995;SDS011;11664;49.774;8.650;2024-01-30T04:04:38;8.30;;;6.10;;
22995;SDS011;11664;49.774;8.650;2024-01-30T04:07:03;6.45;;;5.07;;
22995;SDS011;11664;49.774;8.650;2024-01-30T04:09:41;6.67;;;5.37;;
22995;SDS011;11664;49.774;8.650;2024-01-30T04:12:06;6.22;;;5.15;;
22995;SDS011;11664;49.774;8.650;2024-01-30T04:14:39;5.85;;;5.13;;
22995;SDS011;11664;49.774;8.650;2024-01-30T04:17:04;8.50;;;5.43;;
22995;SDS011;11664;49.774;8.650;2024-01-30T04:19:30;8.80;;;5.43;;
22995;SDS011;11664;49.774;8.650;2024-01-30T04:21:55;6.22;;;5.43;;
22995;SDS011;11664;49.774;8.650;2024-01-30T04:24:21;7.53;;;6.38;;
22995;SDS011;11664;49.774;8.650;2024-01-30T04:26:50;8.50;;;5.75;;
22995;SDS011;11664;49.774;8.650;2024-01-30T04:29:21;5.97;;;5.40;;
22995;SDS011;11664;49.774;8.650;2024-01-30T04:31:47;7.40;;;5.93;;
22995;SDS011;11664;49.774;8.650;2024-01-30T04:34:13;7.40;;;5.68;;
22995;SDS011;11664;49.774;8.650;2024-01-30T04:36:38;6.07;;;5.47;;
22995;SDS011;11664;49.774;8.650;2024-01-30T04:39:04;7.72;;;5.63;;
22995;SDS011;11664;49.774;8.650;2024-01-30T04:41:30;7.88;;;6.38;;
22995;SDS011;11664;49.774;8.650;2024-01-30T04:44:00;8.13;;;6.43;;
22995;SDS011;11664;49.774;8.650;2024-01-30T04:46:25;8.02;;;5.38;;
22995;SDS011;11664;49.774;8.650;2024-01-30T04:48:51;6.55;;;5.78;;
22995;SDS011;11664;49.774;8.650;2024-01-30T04:51:16;7.88;;;6.00;;
22995;SDS011;11664;49.774;8.650;2024-01-30T04:53:42;7.97;;;5.93;;
22995;SDS011;11664;49.774;8.650;2024-01-30T04:56:14;6.88;;;5.80;;
22995;SDS011;11664;49.774;8.650;2024-01-30T04:58:39;8.13;;;6.10;;
22995;SDS011;11664;49.774;8.650;2024-01-30T05:01:07;6.20;;;5.60;;
22995;SDS011;11664;49.774;8.650;2024-01-30T05:03:33;5.40;;;5.00;;
22995;SDS011;11664;49.774;8.650;2024-01-30T05:06:23;10.00;;;5.65;;
22995;SDS011;11664;49.774;8.650;2024-01-30T05:08:51;7.18;;;5.97;;
22995;SDS011;11664;49.774;8.650;2024-01-30T05:14:38;17.13;;;6.00;;
22995;SDS011;11664;49.774;8.650;2024-01-30T05:17:10;8.93;;;6.15;;
22995;SDS011;11664;49.774;8.650;2024-01-30T05:19:37;6.75;;;5.18;;
22995;SDS011;11664;49.774;8.650;2024-01-30T05:22:07;8.43;;;7.13;;
22995;SDS011;11664;49.774;8.650;2024-01-30T05:24:42;9.35;;;8.35;;
22995;SDS011;11664;49.774;8.650;2024-01-30T05:27:10;9.38;;;6.65;;
22995;SDS011;11664;49.774;8.650;2024-01-30T05:29:47;6.90;;;6.20;;
22995;SDS011;11664;49.774;8.650;2024-01-30T05:32:19;8.98;;;6.20;;
22995;SDS011;11664;49.774;8.650;2024-01-30T05:34:54;8.23;;;6.97;;
22995;SDS011;11664;49.774;8.650;2024-01-30T05:37:22;9.60;;;6.30;;
22995;SDS011;11664;49.774;8.650;2024-01-30T05:40:00;7.75;;;5.70;;
22995;SDS011;11664;49.774;8.650;2024-01-30T05:42:31;9.63;;;6.30;;
22995;SDS011;11664;49.774;8.650;2024-01-30T05:45:02;8.30;;;5.82;;
22995;SDS011;11664;49.774;8.650;2024-01-30T05:47:34;8.85;;;5.53;;
22995;SDS011;11664;49.774;8.650;2024-01-30T05:50:03;7.72;;;5.50;;
22995;SDS011;11664;49.774;8.650;2024-01-30T05:52:31;8.40;;;6.25;;
22995;SDS011;11664;49.774;8.650;2024-01-30T05:55:00;7.15;;;6.25;;
22995;SDS011;11664;49.774;8.650;2024-01-30T05:57:28;10.15;;;6.47;;
22995;SDS011;11664;49.774;8.650;2024-01-30T06:00:00;8.82;;;5.80;;
22995;SDS011;11664;49.774;8.650;2024-01-30T06:02:25;9.68;;;6.28;;
22995;SDS011;11664;49.774;8.650;2024-01-30T06:05:06;9.10;;;6.53;;
22995;SDS011;11664;49.774;8.650;2024-01-30T06:07:35;9.60;;;5.75;;
22995;SDS011;11664;49.774;8.650;2024-01-30T06:10:01;8.38;;;6.30;;
22995;SDS011;11664;49.774;8.650;2024-01-30T06:15:20;9.13;;;6.03;;
22995;SDS011;11664;49.774;8.650;2024-01-30T06:17:45;12.65;;;6.80;;
22995;SDS011;11664;49.774;8.650;2024-01-30T06:20:17;8.75;;;6.68;;
22995;SDS011;11664;49.774;8.650;2024-01-30T06:22:43;14.45;;;7.18;;
22995;SDS011;11664;49.774;8.650;2024-01-30T06:27:52;9.73;;;6.97;;
22995;SDS011;11664;49.774;8.650;2024-01-30T06:30:18;10.63;;;6.15;;
22995;SDS011;11664;49.774;8.650;2024-01-30T06:32:53;12.38;;;7.53;;
22995;SDS011;11664;49.774;8.650;2024-01-30T06:35:18;8.35;;;6.28;;
22995;SDS011;11664;49.774;8.650;2024-01-30T06:37:44;10.25;;;6.35;;
22995;SDS011;11664;49.774;8.650;2024-01-30T06:40:15;8.05;;;6.45;;
22995;SDS011;11664;49.774;8.650;2024-01-30T06:42:41;11.05;;;6.88;;
22995;SDS011;11664;49.774;8.650;2024-01-30T06:45:09;10.95;;;7.68;;
22995;SDS011;11664;49.774;8.650;2024-01-30T06:47:35;10.40;;;6.72;;
22995;SDS011;11664;49.774;8.650;2024-01-30T06:50:04;9.43;;;7.60;;
22995;SDS011;11664;49.774;8.650;2024-01-30T06:52:30;7.63;;;6.38;;
22995;SDS011;11664;49.774;8.650;2024-01-30T06:54:58;12.55;;;6.25;;
22995;SDS011;11664;49.774;8.650;2024-01-30T06:57:24;10.02;;;7.53;;
22995;SDS011;11664;49.774;8.650;2024-01-30T07:00:02;11.35;;;7.68;;
22995;SDS011;11664;49.774;8.650;2024-01-30T07:02:31;12.15;;;6.65;;
22995;SDS011;11664;49.774;8.650;2024-01-30T07:04:56;13.05;;;8.55;;
22995;SDS011;11664;49.774;8.650;2024-01-30T07:07:25;8.85;;;7.10;;
22995;SDS011;11664;49.774;8.650;2024-01-30T07:10:03;11.50;;;7.55;;
22995;SDS011;11664;49.774;8.650;2024-01-30T07:12:38;12.18;;;7.47;;
22995;SDS011;11664;49.774;8.650;2024-01-30T07:15:07;14.20;;;7.25;;
22995;SDS011;11664;49.774;8.650;2024-01-30T07:20:58;14.60;;;7.38;;
22995;SDS011;11664;49.774;8.650;2024-01-30T07:23:23;10.20;;;6.60;;
22995;SDS011;11664;49.774;8.650;2024-01-30T07:25:55;15.82;;;7.13;;
22995;SDS011;11664;49.774;8.650;2024-01-30T07:28:26;11.85;;;7.00;;
22995;SDS011;11664;49.774;8.650;2024-01-30T07:30:58;14.27;;;7.03;;
22995;SDS011;11664;49.774;8.650;2024-01-30T07:33:31;13.48;;;8.45;;
22995;SDS011;11664;49.774;8.650;2024-01-30T07:35:56;18.10;;;9.98;;
22995;SDS011;11664;49.774;8.650;2024-01-30T07:38:25;14.35;;;7.43;;
22995;SDS011;11664;49.774;8.650;2024-01-30T07:40:54;13.38;;;7.63;;
22995;SDS011;11664;49.774;8.650;2024-01-30T07:43:19;15.10;;;7.50;;
22995;SDS011;11664;49.774;8.650;2024-01-30T07:45:45;13.48;;;8.30;;
22995;SDS011;11664;49.774;8.650;2024-01-30T07:48:13;11.02;;;9.52;;
22995;SDS011;11664;49.774;8.650;2024-01-30T07:50:45;15.88;;;10.88;;
22995;SDS011;11664;49.774;8.650;2024-01-30T07:53:11;14.00;;;7.32;;
22995;SDS011;11664;49.774;8.650;2024-01-30T07:55:36;9.75;;;7.22;;
22995;SDS011;11664;49.774;8.650;2024-01-30T07:58:02;8.32;;;7.25;;
22995;SDS011;11664;49.774;8.650;2024-01-30T08:00:35;8.48;;;7.60;;
22995;SDS011;11664;49.774;8.650;2024-01-30T08:03:04;10.10;;;7.28;;
22995;SDS011;11664;49.774;8.650;2024-01-30T08:05:29;14.00;;;10.20;;
22995;SDS011;11664;49.774;8.650;2024-01-30T08:07:55;15.80;;;8.10;;
22995;SDS011;11664;49.774;8.650;2024-01-30T08:10:23;9.55;;;7.88;;
22995;SDS011;11664;49.774;8.650;2024-01-30T08:12:48;12.15;;;8.63;;
22995;SDS011;11664;49.774;8.650;2024-01-30T08:15:17;10.23;;;7.25;;
22995;SDS011;11664;49.774;8.650;2024-01-30T08:17:57;16.25;;;8.70;;
22995;SDS011;11664;49.774;8.650;2024-01-30T08:20:24;9.80;;;7.18;;
22995;SDS011;11664;49.774;8.650;2024-01-30T08:22:56;10.30;;;9.20;;
22995;SDS011;11664;49.774;8.650;2024-01-30T08:25:21;12.60;;;10.25;;
22995;SDS011;11664;49.774;8.650;2024-01-30T08:27:50;14.30;;;12.25;;
22995;SDS011;11664;49.774;8.650;2024-01-30T08:30:16;12.25;;;7.82;;
22995;SDS011;11664;49.774;8.650;2024-01-30T08:32:47;12.57;;;8.52;;
22995;SDS011;11664;49.774;8.650;2024-01-30T08:35:19;12.65;;;10.18;;
22995;SDS011;11664;49.774;8.650;2024-01-30T08:37:45;11.65;;;7.05;;
22995;SDS011;11664;49.774;8.650;2024-01-30T08:40:16;11.30;;;8.07;;
22995;SDS011;11664;49.774;8.650;2024-01-30T08:42:42;17.13;;;14.50;;
22995;SDS011;11664;49.774;8.650;2024-01-30T08:45:10;16.40;;;8.60;;
22995;SDS011;11664;49.774;8.650;2024-01-30T08:47:42;13.55;;;11.13;;
22995;SDS011;11664;49.774;8.650;2024-01-30T08:50:08;16.08;;;11.02;;
22995;SDS011;11664;49.774;8.650;2024-01-30T08:52:39;14.50;;;8.93;;
22995;SDS011;11664;49.774;8.650;2024-01-30T08:55:05;9.02;;;7.10;;
22995;SDS011;11664;49.774;8.650;2024-01-30T08:57:31;13.30;;;9.02;;
22995;SDS011;11664;49.774;8.650;2024-01-30T09:00:15;10.40;;;8.85;;
22995;SDS011;11664;49.774;8.650;2024-01-30T09:02:47;12.00;;;9.27;;
22995;SDS011;11664;49.774;8.650;2024-01-30T09:05:16;13.68;;;9.18;;
22995;SDS011;11664;49.774;8.650;2024-01-30T09:07:50;12.48;;;9.65;;
22995;SDS011;11664;49.774;8.650;2024-01-30T09:10:22;13.18;;;8.38;;
22995;SDS011;11664;49.774;8.650;2024-01-30T09:12:48;13.48;;;9.18;;
22995;SDS011;11664;49.774;8.650;2024-01-30T09:15:25;14.52;;;8.85;;
22995;SDS011;11664;49.774;8.650;2024-01-30T09:17:51;14.15;;;8.32;;
22995;SDS011;11664;49.774;8.650;2024-01-30T09:20:16;13.35;;;8.90;;
22995;SDS011;11664;49.774;8.650;2024-01-30T09:22:42;14.75;;;13.00;;
22995;SDS011;11664;49.774;8.650;2024-01-30T09:25:08;14.70;;;10.60;;
22995;SDS011;11664;49.774;8.650;2024-01-30T09:27:33;16.88;;;8.90;;
22995;SDS011;11664;49.774;8.650;2024-01-30T09:30:02;13.25;;;9.38;;
22995;SDS011;11664;49.774;8.650;2024-01-30T09:32:46;11.57;;;8.13;;
22995;SDS011;11664;49.774;8.650;2024-01-30T09:35:15;11.75;;;10.50;;
22995;SDS011;11664;49.774;8.650;2024-01-30T09:37:44;15.07;;;11.45;;
22995;SDS011;11664;49.774;8.650;2024-01-30T09:40:09;12.50;;;11.05;;
22995;SDS011;11664;49.774;8.650;2024-01-30T09:42:38;11.90;;;10.30;;
22995;SDS011;11664;49.774;8.650;2024-01-30T09:45:08;12.15;;;10.95;;
22995;SDS011;11664;49.774;8.650;2024-01-30T09:47:42;14.18;;;12.68;;
22995;SDS011;11664;49.774;8.650;2024-01-30T09:50:08;18.23;;;12.73;;
22995;SDS011;11664;49.774;8.650;2024-01-30T09:52:35;13.77;;;11.25;;
22995;SDS011;11664;49.774;8.650;2024-01-30T09:55:01;13.13;;;11.70;;
22995;SDS011;11664;49.774;8.650;2024-01-30T09:57:27;12.52;;;10.43;;
22995;SDS011;11664;49.774;8.650;2024-01-30T09:59:56;11.27;;;9.32;;
22995;SDS011;11664;49.774;8.650;2024-01-30T10:02:22;14.50;;;8.80;;
22995;SDS011;11664;49.774;8.650;2024-01-30T10:04:57;10.13;;;7.65;;
22995;SDS011;11664;49.774;8.650;2024-01-30T10:07:32;10.93;;;8.57;;
22995;SDS011;11664;49.774;8.650;2024-01-30T10:10:02;10.90;;;7.97;;
22995;SDS011;11664;49.774;8.650;2024-01-30T10:12:43;11.02;;;9.07;;
22995;SDS011;11664;49.774;8.650;2024-01-30T10:15:12;13.00;;;8.93;;
22995;SDS011;11664;49.774;8.650;2024-01-30T10:17:51;8.75;;;7.80;;
22995;SDS011;11664;49.774;8.650;2024-01-30T10:20:16;7.70;;;6.53;;
22995;SDS011;11664;49.774;8.650;2024-01-30T10:22:49;8.82;;;7.90;;
22995;SDS011;11664;49.774;8.650;2024-01-30T10:25:15;9.00;;;7.38;;
22995;SDS011;11664;49.774;8.650;2024-01-30T10:27:44;7.57;;;6.35;;
22995;SDS011;11664;49.774;8.650;2024-01-30T10:30:10;8.02;;;5.93;;
22995;SDS011;11664;49.774;8.650;2024-01-30T10:32:35;6.78;;;5.55;;
22995;SDS011;11664;49.774;8.650;2024-01-30T10:35:01;7.18;;;5.22;;
22995;SDS011;11664;49.774;8.650;2024-01-30T10:37:27;5.90;;;4.85;;
22995;SDS011;11664;49.774;8.650;2024-01-30T10:40:00;10.15;;;5.95;;
22995;SDS011;11664;49.774;8.650;2024-01-30T10:42:29;8.38;;;5.82;;
22995;SDS011;11664;49.774;8.650;2024-01-30T10:45:07;7.45;;;5.07;;
22995;SDS011;11664;49.774;8.650;2024-01-30T10:47:34;6.75;;;5.57;;
22995;SDS011;11664;49.774;8.650;2024-01-30T10:50:11;8.73;;;5.35;;
22995;SDS011;11664;49.774;8.650;2024-01-30T10:52:39;7.93;;;5.38;;
22995;SDS011;11664;49.774;8.650;2024-01-30T10:55:07;11.57;;;6.35;;
22995;SDS011;11664;49.774;8.650;2024-01-30T10:57:36;6.22;;;4.70;;
22995;SDS011;11664;49.774;8.650;2024-01-30T11:00:04;5.32;;;4.28;;
22995;SDS011;11664;49.774;8.650;2024-01-30T11:02:55;5.38;;;4.32;;
22995;SDS011;11664;49.774;8.650;2024-01-30T11:05:30;6.43;;;4.57;;
22995;SDS011;11664;49.774;8.650;2024-01-30T11:11:12;7.18;;;4.57;;
22995;SDS011;11664;49.774;8.650;2024-01-30T11:13:37;7.72;;;4.75;;
22995;SDS011;11664;49.774;8.650;2024-01-30T11:16:09;5.80;;;4.40;;
22995;SDS011;11664;49.774;8.650;2024-01-30T11:18:36;8.35;;;5.13;;
22995;SDS011;11664;49.774;8.650;2024-01-30T11:21:04;6.03;;;4.95;;
22995;SDS011;11664;49.774;8.650;2024-01-30T11:23:36;6.47;;;4.88;;
22995;SDS011;11664;49.774;8.650;2024-01-30T11:26:15;6.68;;;4.80;;
22995;SDS011;11664;49.774;8.650;2024-01-30T11:28:42;4.90;;;4.30;;
22995;SDS011;11664;49.774;8.650;2024-01-30T11:31:23;6.07;;;5.38;;
22995;SDS011;11664;49.774;8.650;2024-01-30T11:33:55;5.78;;;4.78;;
22995;SDS011;11664;49.774;8.650;2024-01-30T11:36:34;6.15;;;4.40;;
22995;SDS011;11664;49.774;8.650;2024-01-30T11:39:08;5.05;;;4.55;;
22995;SDS011;11664;49.774;8.650;2024-01-30T11:41:45;9.48;;;5.03;;
22995;SDS011;11664;49.774;8.650;2024-01-30T11:44:11;6.13;;;4.82;;
22995;SDS011;11664;49.774;8.650;2024-01-30T11:46:47;6.18;;;4.47;;
22995;SDS011;11664;49.774;8.650;2024-01-30T11:49:16;5.32;;;4.80;;
22995;SDS011;11664;49.774;8.650;2024-01-30T11:51:42;6.70;;;4.45;;
22995;SDS011;11664;49.774;8.650;2024-01-30T11:54:11;7.05;;;4.78;;
22995;SDS011;11664;49.774;8.650;2024-01-30T11:56:42;4.88;;;4.10;;
22995;SDS011;11664;49.774;8.650;2024-01-30T11:59:08;8.73;;;5.45;;
22995;SDS011;11664;49.774;8.650;2024-01-30T12:01:37;5.13;;;4.55;;
22995;SDS011;11664;49.774;8.650;2024-01-30T12:04:09;4.47;;;3.97;;
22995;SDS011;11664;49.774;8.650;2024-01-30T12:09:28;5.88;;;4.82;;
22995;SDS011;11664;49.774;8.650;2024-01-30T12:11:54;4.75;;;4.28;;
22995;SDS011;11664;49.774;8.650;2024-01-30T12:14:19;4.47;;;4.07;;
22995;SDS011;11664;49.774;8.650;2024-01-30T12:16:51;4.45;;;3.78;;
22995;SDS011;11664;49.774;8.650;2024-01-30T12:22:17;9.10;;;4.93;;
22995;SDS011;11664;49.774;8.650;2024-01-30T12:24:51;4.50;;;3.90;;
22995;SDS011;11664;49.774;8.650;2024-01-30T12:27:18;6.22;;;4.18;;
22995;SDS011;11664;49.774;8.650;2024-01-30T12:29:43;5.05;;;4.45;;
22995;SDS011;11664;49.774;8.650;2024-01-30T12:32:14;4.80;;;4.40;;
22995;SDS011;11664;49.774;8.650;2024-01-30T12:34:43;4.60;;;3.80;;
22995;SDS011;11664;49.774;8.650;2024-01-30T12:37:15;5.38;;;4.32;;
22995;SDS011;11664;49.774;8.650;2024-01-30T12:39:46;6.25;;;4.15;;
22995;SDS011;11664;49.774;8.650;2024-01-30T12:42:21;8.55;;;4.25;;
22995;SDS011;11664;49.774;8.650;2024-01-30T12:44:53;6.03;;;4.57;;
22995;SDS011;11664;49.774;8.650;2024-01-30T12:47:27;5.90;;;4.25;;
22995;SDS011;11664;49.774;8.650;2024-01-30T12:49:56;4.93;;;4.43;;
22995;SDS011;11664;49.774;8.650;2024-01-30T12:52:22;6.47;;;4.25;;
22995;SDS011;11664;49.774;8.650;2024-01-30T12:54:54;5.30;;;4.20;;
22995;SDS011;11664;49.774;8.650;2024-01-30T12:57:20;5.65;;;5.07;;
22995;SDS011;11664;49.774;8.650;2024-01-30T12:59:46;6.80;;;4.43;;
22995;SDS011;11664;49.774;8.650;2024-01-30T13:02:14;8.07;;;4.88;;
22995;SDS011;11664;49.774;8.650;2024-01-30T13:07:29;5.53;;;4.78;;
22995;SDS011;11664;49.774;8.650;2024-01-30T13:13:02;5.75;;;4.80;;
22995;SDS011;11664;49.774;8.650;2024-01-30T13:15:34;5.75;;;4.40;;
22995;SDS011;11664;49.774;8.650;2024-01-30T13:18:00;6.28;;;4.50;;
22995;SDS011;11664;49.774;8.650;2024-01-30T13:20:29;5.63;;;4.38;;
22995;SDS011;11664;49.774;8.650;2024-01-30T13:22:55;10.95;;;5.05;;
22995;SDS011;11664;49.774;8.650;2024-01-30T13:25:20;8.43;;;4.97;;
22995;SDS011;11664;49.774;8.650;2024-01-30T13:27:46;5.65;;;4.68;;
22995;SDS011;11664;49.774;8.650;2024-01-30T13:30:12;5.93;;;4.72;;
22995;SDS011;11664;49.774;8.650;2024-01-30T13:32:37;7.65;;;4.85;;
22995;SDS011;11664;49.774;8.650;2024-01-30T13:35:03;4.60;;;4.00;;
22995;SDS011;11664;49.774;8.650;2024-01-30T13:37:29;4.40;;;4.00;;
22995;SDS011;11664;49.774;8.650;2024-01-30T13:39:55;8.35;;;4.30;;
22995;SDS011;11664;49.774;8.650;2024-01-30T13:42:21;5.25;;;4.10;;
22995;SDS011;11664;49.774;8.650;2024-01-30T13:44:47;7.45;;;4.85;;
22995;SDS011;11664;49.774;8.650;2024-01-30T13:47:13;5.72;;;3.83;;
22995;SDS011;11664;49.774;8.650;2024-01-30T13:49:39;5.60;;;4.53;;
22995;SDS011;11664;49.774;8.650;2024-01-30T13:52:04;4.70;;;4.25;;
22995;SDS011;11664;49.774;8.650;2024-01-30T13:54:30;6.80;;;4.25;;
22995;SDS011;11664;49.774;8.650;2024-01-30T13:56:55;5.28;;;4.28;;
22995;SDS011;11664;49.774;8.650;2024-01-30T13:59:21;5.95;;;4.80;;
22995;SDS011;11664;49.774;8.650;2024-01-30T14:01:49;5.63;;;4.53;;
22995;SDS011;11664;49.774;8.650;2024-01-30T14:04:15;4.53;;;4.00;;
22995;SDS011;11664;49.774;8.650;2024-01-30T14:06:40;5.32;;;4.20;;
22995;SDS011;11664;49.774;8.650;2024-01-30T14:09:06;5.00;;;4.45;;
22995;SDS011;11664;49.774;8.650;2024-01-30T14:11:31;4.95;;;4.32;;
22995;SDS011;11664;49.774;8.650;2024-01-30T14:13:57;5.95;;;4.32;;
22995;SDS011;11664;49.774;8.650;2024-01-30T14:16:22;5.43;;;4.03;;
22995;SDS011;11664;49.774;8.650;2024-01-30T14:18:49;4.63;;;4.22;;
22995;SDS011;11664;49.774;8.650;2024-01-30T14:21:15;6.13;;;4.40;;
22995;SDS011;11664;49.774;8.650;2024-01-30T14:23:40;5.57;;;4.10;;
22995;SDS011;11664;49.774;8.650;2024-01-30T14:26:06;4.82;;;4.05;;
22995;SDS011;11664;49.774;8.650;2024-01-30T14:28:31;4.90;;;4.38;;
22995;SDS011;11664;49.774;8.650;2024-01-30T14:30:57;7.07;;;4.28;;
22995;SDS011;11664;49.774;8.650;2024-01-30T14:33:22;7.35;;;4.38;;
22995;SDS011;11664;49.774;8.650;2024-01-30T14:35:48;5.53;;;4.43;;
22995;SDS011;11664;49.774;8.650;2024-01-30T14:38:14;5.72;;;5.18;;
22995;SDS011;11664;49.774;8.650;2024-01-30T14:40:39;7.13;;;6.43;;
22995;SDS011;11664;49.774;8.650;2024-01-30T14:43:05;6.68;;;6.03;;
22995;SDS011;11664;49.774;8.650;2024-01-30T14:45:30;7.93;;;6.20;;
22995;SDS011;11664;49.774;8.650;2024-01-30T14:47:57;6.45;;;5.82;;
22995;SDS011;11664;49.774;8.650;2024-01-30T14:50:23;8.70;;;6.68;;
22995;SDS011;11664;49.774;8.650;2024-01-30T14:52:48;6.90;;;5.18;;
22995;SDS011;11664;49.774;8.650;2024-01-30T14:55:14;5.72;;;5.22;;
22995;SDS011;11664;49.774;8.650;2024-01-30T14:57:40;12.10;;;5.95;;
22995;SDS011;11664;49.774;8.650;2024-01-30T15:00:07;7.03;;;6.43;;
22995;SDS011;11664;49.774;8.650;2024-01-30T15:02:34;7.95;;;5.15;;
22995;SDS011;11664;49.774;8.650;2024-01-30T15:05:00;8.68;;;5.95;;
22995;SDS011;11664;49.774;8.650;2024-01-30T15:07:25;6.75;;;5.45;;
22995;SDS011;11664;49.774;8.650;2024-01-30T15:09:52;4.90;;;4.40;;
22995;SDS011;11664;49.774;8.650;2024-01-30T15:12:18;6.70;;;5.03;;
22995;SDS011;11664;49.774;8.650;2024-01-30T15:14:43;6.75;;;4.68;;
22995;SDS011;11664;49.774;8.650;2024-01-30T15:17:15;4.78;;;4.38;;
22995;SDS011;11664;49.774;8.650;2024-01-30T15:19:46;7.93;;;4.68;;
22995;SDS011;11664;49.774;8.650;2024-01-30T15:22:12;6.25;;;5.00;;
22995;SDS011;11664;49.774;8.650;2024-01-30T15:24:38;4.82;;;4.35;;
22995;SDS011;11664;49.774;8.650;2024-01-30T15:27:03;6.07;;;4.43;;
22995;SDS011;11664;49.774;8.650;2024-01-30T15:29:29;7.85;;;5.30;;
22995;SDS011;11664;49.774;8.650;2024-01-30T15:31:55;10.50;;;9.70;;
22995;SDS011;11664;49.774;8.650;2024-01-30T15:34:20;7.70;;;3.55;;
22995;SDS011;11664;49.774;8.650;2024-01-30T15:36:46;5.07;;;3.85;;